Terminal Aerodrome Forecast
Issued by NWS Charleston, WV

Current Version | Previous Version | Text Only | Print | Product List | Glossary Off
Versions: 1 2 3 4 5 6 7 8 9 10 11 12 13 14 15 16 17 18 19 20 21

525
FTUS41 KRLX 251724
TAFPKB
TAF
KPKB 251724Z 2518/2618 07006KT P6SM BKN060 OVC080
     FM260500 00000KT P6SM FEW250
     FM260800 00000KT 4SM BR FEW250
     FM260900 00000KT 2SM BR FEW250=

USA.gov is the U.S. government's official web portal to all federal, state and local government web resources and services.